Meteo Giornale » Osservazioni meteo Messico » Tapachula
ore: 10:40 - Osservazioni Meteo Tapachula
Lat. 14° 47' N Lon. 92° 23' W Alt. 29 metri s.l.m.
30 °C
Molto Nuvoloso
Temp. 24 Ore
24 °C
34 °C
Nord-Ovest
11.1 Km/h
Dew point 23 °C
Umidità 66 %
Visibilità 11 Km
Il sole sorge alle ore 05:57
Il sole tramonta alle ore 18:22
| Data e Ora | Cielo e Fenomeni | T °C | DP °C | Um. % | Pres. hPa | Vis. km | Vento km/h | |
|---|---|---|---|---|---|---|---|---|
| Oggi h: 10:40 | Molto Nuvoloso | 30 | 23 | 66 | 1014 | 11 | NO 11.1 | |
| Oggi h: 09:41 | Molto Nuvoloso | 28 | 24 | 78 | 1014 | 11 | O/NO 9.3 | |
| Oggi h: 08:40 | Molto Nuvoloso | 27 | 25 | 88 | 1013 | 11 | N 0 | |
| Oggi h: 07:40 | Molto Nuvoloso | 25 | 24 | 94 | 1012 | 10 | O 9.3 | |
| Oggi h: 06:43 | Nuvoloso | 24 | 23 | 94 | 1012 | 10 | N 0 | |
| Oggi h: 05:52 | Nuvoloso | 24 | 23 | 94 | 1011 | 10 | N 0 | |
| Oggi h: 04:40 | Nuvoloso | 24 | 23 | 94 | 1012 | 10 | N 0 | |
| Oggi h: 03:40 | Nuvoloso | 26 | 25 | 94 | 1014 | 10 | N 0 | |
| Oggi h: 02:42 | Nuvoloso | 25 | 23 | 88 | 1014 | 10 | N 0 | |
| Oggi h: 01:41 | Nuvoloso | 25 | 23 | 88 | 1014 | 10 | N 0 | |
| Oggi h: 00:41 | Nuvoloso | 24 | 21 | 83 | 1014 | 10 | N 0 | |
| Ieri h: 23:40 | Nuvoloso | 24 | 21 | 83 | 1014 | 10 | N 0 | |
| Ieri h: 22:40 | Nuvoloso | 26 | 22 | 78 | 1014 | 10 | N 0 | |
| Ieri h: 21:40 | Nuvoloso | 26 | 22 | 78 | 1014 | 10 | N 0 | |
| Ieri h: 20:40 | Nuvoloso | 25 | 21 | 78 | 1012 | 10 | N 0 | |
| Ieri h: 19:40 | Nuvoloso | 26 | 21 | 73 | 1011 | 10 | N 0 | |
| Ieri h: 18:40 | Nuvoloso | 27 | 20 | 65 | 1011 | 10 | O/NO 16.7 | |
| Ieri h: 17:41 | Pioggia | 32 | 25 | 66 | 1011 | 10 | O 18.5 | |
| Ieri h: 16:40 | Nuvoloso | 33 | 25 | 62 | 1010 | 10 | SO 18.5 | |
| Ieri h: 15:40 | Nuvoloso | 34 | 23 | 52 | 1009 | 10 | SO 18.5 | |
| Ieri h: 14:44 | Nuvoloso | 34 | 25 | 59 | 1009 | 10 | SO 20.3 | |
| Ieri h: 13:40 | Nuvoloso | 33 | 25 | 62 | 1010 | 10 | SO 18.5 | |
| Ieri h: 12:49 | Nuvoloso | 34 | 25 | 59 | 1011 | 10 | S 7.4 | |
| Ieri h: 11:43 | Nuvoloso | 34 | 24 | 56 | 1012 | 10 | N 5.5 | |



